Flight Track Log - Related Links

Times and Time Zones

All times are in EDT time to prevent confusion due to time zone crossing. See the UAL109 flight status page for this flight to view local times or setup timezone preferences in your user account.

Time Position Orientation Groundspeed Altitude Reporting Facility
EDT Latitude Longitude Course Direction KTS MPH feet Rate Location/Type
Thu 07:07:41 AM 55.9450 -3.3680 264° West 3 3  Level FlightAware ADS-B
Thu 07:08:26 AM 55.9460 -3.3690 331° Northwest 2 2 108 Level FlightAware ADS-B
Thu 07:09:17 AM 55.9460 -3.3680 90° East 2 2 116 Level FlightAware ADS-B
Thu 07:11:00 AM 56.0030 -3.6905 283° West  Level FlightAware Approximate
Thu 07:12:00 AM 56.0270 -3.8825 283° West  Level FlightAware Approximate
Thu 07:12:43 AM 55.9460 -3.3700 283° West 8 9  Level FlightAware ADS-B
Thu 07:13:13 AM 55.9450 -3.3730 239° Southwest 18 21 199 Level FlightAware ADS-B
Thu 07:13:43 AM 55.9430 -3.3770 228° Southwest 23 26 217 Level FlightAware ADS-B
Thu 07:14:05 AM 55.9420 -3.3800 239° Southwest 22 25 238 Level FlightAware ADS-B
Thu 07:14:38 AM 55.9400 -3.3860 239° Southwest 22 25 257 Level FlightAware ADS-B
Thu 07:15:39 AM 55.9400 -3.3910 270° West 5 6 291 Level FlightAware ADS-B
Thu 07:16:36 AM 55.9400 -3.3900 90° East 1 1 387 Level FlightAware ADS-B
Thu 07:17:59 AM 55.9430 -3.3810 59° Northeast 110 127 558 Level FlightAware ADS-B
Thu 07:18:14 AM 55.9460 -3.3690 66° East 166 191 1,565 Level FlightAware ADS-B
Thu 07:18:45 AM 55.9640 -3.3300 50° Northeast 190 219 1,200 2,488 Climbing FlightAware ADS-B
Thu 07:18:55 AM 55.9720 -3.3200 35° Northeast 189 217 1,700 2,400 Climbing FlightAware ADS-B
Thu 07:19:20 AM 55.9880 -3.2960 40° Northeast 190 219 2,600 2,000 Climbing FlightAware ADS-B
Thu 07:19:46 AM 56.0070 -3.2760 30° Northeast 197 227 3,400 1,607 Climbing FlightAware ADS-B
Thu 07:20:16 AM 56.0375 -3.3038 30° Northeast 244 281 4,100 1,400 Climbing FlightAware UK
Thu 07:20:16 AM 56.0320 -3.3030 30° Northeast 235 270 4,100 1,800 Level FlightAware ADS-B
Thu 07:20:26 AM 56.0350 -3.3230 285° West 246 283 4,400 1,846 Climbing FlightAware ADS-B
Thu 07:20:42 AM 56.0340 -3.3560 267° West 264 304 4,900 2,143 Climbing FlightAware ADS-B
Thu 07:21:08 AM 56.0260 -3.4120 256° West 277 319 5,900 2,526 Climbing FlightAware ADS-B
Thu 07:21:39 AM 56.0160 -3.4750 254° West 279 321 7,300 2,690 Climbing FlightAware ADS-B
Thu 07:22:06 AM 56.0070 -3.5380 256° West 284 327 8,500 2,786 Climbing FlightAware ADS-B
Thu 07:22:35 AM 55.9970 -3.6040 255° West 285 328 9,900 2,381 Climbing FlightAware ADS-B
Thu 07:23:09 AM 55.9882 -3.6892 255° West 314 361 11,000 1,733 Climbing FlightAware UK
Thu 07:23:20 AM 55.9780 -3.7140 255° West 321 369 11,200 1,102 Climbing FlightAware ADS-B
Thu 07:23:58 AM 55.9630 -3.8110 255° West 355 409 11,900 1,333 Climbing FlightAware ADS-B
Thu 07:24:32 AM 55.9460 -3.9130 253° West 379 436 12,800 2,108 Climbing FlightAware ADS-B
Thu 07:25:12 AM 55.9270 -4.0370 255° West 385 443 14,500 2,302 Climbing FlightAware ADS-B
Thu 07:25:58 AM 55.9020 -4.1770 252° West 398 458 16,100 2,074 Climbing FlightAware ADS-B
Thu 07:26:33 AM 55.8780 -4.2830 248° West 405 466 17,300 1,974 Climbing FlightAware ADS-B
Thu 07:27:14 AM 55.8490 -4.4140 248° West 413 475 18,600 1,857 Climbing FlightAware ADS-B
Thu 07:27:15 AM 55.8555 -4.4176 248° West 420 483 18,600 1,800 Level FlightAware UK
Thu 07:27:54 AM 55.8220 -4.5410 249° West 419 482 19,800 1,840 Climbing FlightAware ADS-B
Thu 07:28:30 AM 55.7970 -4.6580 249° West 426 490 20,900 1,760 Climbing FlightAware ADS-B
Thu 07:29:09 AM 55.7772 -4.7875 249° West 446 513 22,000 1,800 Climbing FlightAware UK
Thu 07:29:10 AM 55.7690 -4.7870 249° West 432 497 22,100 1,696 Climbing FlightAware ADS-B
Thu 07:29:55 AM 55.7360 -4.9400 249° West 437 503 23,300 1,516 Climbing FlightAware ADS-B
Thu 07:30:45 AM 55.7073 -5.1073 249° West 460 529 24,500 1,322 Climbing FlightAware UK
Thu 07:30:54 AM 55.6920 -5.1360 249° West 448 516 24,600 1,102 Climbing FlightAware ADS-B
Thu 07:31:34 AM 55.6610 -5.2740 248° West 456 525 25,400 1,097 Climbing FlightAware ADS-B
Thu 07:32:27 AM 55.6269 -5.4620 248° West 480 552 26,300 1,091 Climbing FlightAware UK
Thu 07:32:29 AM 55.6160 -5.4670 248° West 468 539 26,400 1,263 Climbing FlightAware ADS-B
Thu 07:33:24 AM 55.5720 -5.6560 248° West 474 545 27,500 1,241 Climbing FlightAware ADS-B
Thu 07:33:27 AM 55.5778 -5.6761 248° West 478 550 27,600 1,455 Climbing FlightAware UK
Thu 07:33:57 AM 55.5530 -5.7832 248° West 478 550 28,300 1,472 Climbing FlightAware UK
Thu 07:34:20 AM 55.5240 -5.8650 248° West 473 544 28,900 1,400 Climbing FlightAware ADS-B
Thu 07:34:57 AM 55.5033 -5.9970 248° West 472 543 29,700 1,200 Climbing FlightAware UK
Thu 07:35:00 AM 55.4910 -6.0060 248° West 473 544 29,700 1,224 Level FlightAware ADS-B
Thu 07:35:46 AM 55.4520 -6.1690 247° West 475 547 30,700 1,341 Climbing FlightAware ADS-B
Thu 07:36:25 AM 55.4180 -6.3090 247° West 473 544 31,600 1,247 Climbing FlightAware ADS-B
Thu 07:37:03 AM 55.3973 -6.4460 247° West 468 539 32,300 1,171 Climbing FlightAware UK
Thu 07:37:06 AM 55.3830 -6.4540 247° West 471 542 32,400 1,286 Climbing FlightAware ADS-B
Thu 07:37:45 AM 55.3490 -6.5950 247° West 470 541 33,200 1,129 Climbing FlightAware ADS-B
Thu 07:38:31 AM 55.3100 -6.7560 247° West 470 541 34,000 1,000 Climbing FlightAware ADS-B
Thu 07:38:33 AM 55.3210 -6.7634 247° West 466 536 34,000 938 Level FlightAware UK
Thu 07:39:03 AM 55.2953 -6.8686 247° West 464 534 34,500 955 Climbing FlightAware UK
Thu 07:39:17 AM 55.2710 -6.9150 247° West 469 540 34,700 566 Climbing FlightAware ADS-B
Thu 07:39:56 AM 55.2370 -7.0530 247° West 474 545 35,000 243 Climbing FlightAware ADS-B
Thu 07:40:31 AM 55.2050 -7.1800 247° West 479 551 35,000  Level FlightAware ADS-B
Thu 07:40:33 AM 55.2177 -7.1856 247° West 470 541 35,000  Level FlightAware UK
Thu 07:41:03 AM 55.1914 -7.2917 247° West 468 539 35,000  Level FlightAware UK
Thu 07:41:16 AM 55.1670 -7.3350 247° West 475 547 35,000  Level FlightAware ADS-B
Thu 07:41:57 AM 55.1300 -7.4780 246° West 472 543 35,000  Level FlightAware ADS-B
Thu 07:42:36 AM 55.0960 -7.6140 246° West 470 541 35,000  Level FlightAware ADS-B
Thu 07:42:38 AM 55.1079 -7.6255 246° West 460 529 35,000  Level FlightAware UK
Thu 07:43:08 AM 55.0819 -7.7290 246° West 460 529 35,000  Level FlightAware UK
Thu 07:43:22 AM 55.0550 -7.7750 246° West 468 539 35,000  Level FlightAware ADS-B
Thu 07:44:02 AM 55.0190 -7.9140 246° West 467 537 35,000  Level FlightAware ADS-B
Thu 07:44:38 AM 55.0033 -8.0370 246° West 458 527 35,000  Level FlightAware UK
Thu 07:44:47 AM 54.9820 -8.0580 246° West 467 537 35,000  Level FlightAware ADS-B
Thu 07:45:33 AM 54.9400 -8.2190 246° West 466 536 35,000  Level FlightAware ADS-B
Thu 07:46:08 AM 54.9242 -8.3436 246° West 458 527 35,000  Level FlightAware UK
Thu 07:46:13 AM 54.9030 -8.3580 246° West 467 537 35,000  Level FlightAware ADS-B
Thu 07:46:58 AM 54.8630 -8.5100 245° Southwest 467 537 35,000  Level FlightAware ADS-B
Thu 07:47:33 AM 54.8320 -8.6300 246° West 468 539 35,000  Level FlightAware ADS-B
Thu 07:48:13 AM 54.7960 -8.7640 246° West 469 540 35,000  Level FlightAware ADS-B
Thu 07:48:14 AM 54.8119 -8.7712 246° West 460 529 35,000  Level FlightAware UK
Thu 07:48:44 AM 54.7847 -8.8732 246° West 462 532 35,000  Level FlightAware UK
Thu 07:48:58 AM 54.7540 -8.9200 246° West 467 537 35,000  Level FlightAware ADS-B
Thu 07:49:38 AM 54.7180 -9.0550 245° Southwest 468 539 35,000  Level FlightAware ADS-B
Thu 07:50:18 AM 54.6810 -9.1920 245° Southwest 469 540 35,000  Level FlightAware ADS-B
Thu 07:50:58 AM 54.6440 -9.3270 245° Southwest 469 540 35,000  Level FlightAware ADS-B
Thu 07:51:43 AM 54.6020 -9.4780 244° Southwest 470 541 35,000  Level FlightAware ADS-B
Thu 07:52:18 AM 54.5690 -9.6010 245° Southwest 474 545 35,000  Level FlightAware ADS-B
Thu 07:52:58 AM 54.5340 -9.7350 246° West 474 545 35,000  Level FlightAware ADS-B
Thu 07:53:43 AM 54.4930 -9.8920 246° West 474 545 35,000  Level FlightAware ADS-B
Thu 07:54:18 AM 54.4610 -10.0090 245° Southwest 474 545 35,000  Level FlightAware ADS-B
Thu 07:54:58 AM 54.4240 -10.1460 245° Southwest 470 541 35,000  Level FlightAware ADS-B
Thu 07:55:38 AM 54.3870 -10.2830 245° Southwest 470 541 35,000  Level FlightAware ADS-B
Thu 07:56:23 AM 54.3460 -10.4330 245° Southwest 469 540 35,000  Level FlightAware ADS-B
Thu 07:57:04 AM 54.3090 -10.5710 245° Southwest 468 539 35,000  Level FlightAware ADS-B
Thu 07:57:48 AM 54.2680 -10.7190 245° Southwest 466 536 35,000  Level FlightAware ADS-B
Thu 07:58:33 AM 54.2260 -10.8720 245° Southwest 466 536 35,000  Level FlightAware ADS-B
Thu 07:59:08 AM 54.1940 -10.9880 245° Southwest 467 537 35,000  Level FlightAware ADS-B
Thu 07:59:48 AM 54.1560 -11.1210 244° Southwest 466 536 35,000  Level FlightAware ADS-B
Thu 08:00:28 AM 54.1190 -11.2530 244° Southwest 467 537 35,000  Level FlightAware ADS-B
Thu 08:01:08 AM 54.0810 -11.3900 245° Southwest 467 537 35,000  Level FlightAware ADS-B
Thu 08:01:48 AM 54.0440 -11.5200 244° Southwest 467 537 35,000  Level FlightAware ADS-B
Thu 08:02:29 AM 54.0050 -11.6550 244° Southwest 468 539 35,000  Level FlightAware ADS-B
Thu 08:03:08 AM 53.9680 -11.7860 244° Southwest 471 542 35,000  Level FlightAware ADS-B
Thu 08:03:53 AM 53.9250 -11.9350 244° Southwest 470 541 35,000  Level FlightAware ADS-B
Thu 08:04:34 AM 53.8860 -12.0680 244° Southwest 470 541 35,000  Level FlightAware ADS-B
Thu 08:05:15 AM 53.8490 -12.1970 244° Southwest 469 540 35,000  Level FlightAware ADS-B
Thu 08:05:54 AM 53.8100 -12.3290 243° Southwest 470 541 35,000  Level FlightAware ADS-B
Thu 08:06:33 AM 53.7700 -12.4650 244° Southwest 470 541 35,000  Level FlightAware ADS-B
Thu 08:07:14 AM 53.7320 -12.5920 243° Southwest 469 540 35,000  Level FlightAware ADS-B
Thu 08:07:58 AM 53.6880 -12.7400 243° Southwest 469 540 35,000  Level FlightAware ADS-B
Thu 08:08:53 AM 53.6370 -12.9100 243° Southwest 468 539 35,000  Level FlightAware ADS-B
Thu 08:09:49 AM 53.5850 -13.0850 243° Southwest 467 537 35,000  Level FlightAware ADS-B
Thu 08:10:35 AM 53.5440 -13.2190 243° Southwest 467 537 35,000  Level FlightAware ADS-B
Thu 08:11:57 AM 53.4620 -13.4860 243° Southwest 463 533 35,000  Level FlightAware ADS-B
Thu 08:12:31 AM 53.4350 -13.5760 243° Southwest 463 533 35,000  Level FlightAware ADS-B
Thu 08:13:19 AM 53.3750 -13.7680 242° Southwest 462 532 35,000  Level FlightAware ADS-B
Thu 08:13:58 AM 53.3360 -13.8940 243° Southwest 462 532 35,000  Level FlightAware ADS-B
Thu 08:14:43 AM 53.2930 -14.0310 242° Southwest 461 531 35,000  Level FlightAware ADS-B
Thu 08:14:53 AM 53.2820 -14.0670 243° Southwest 461 531 35,000  Level FlightAware ADS-B
Thu 08:16:09 AM 53.2200 -14.2590 242° Southwest 461 531 35,000  Level FlightAware ADS-B
Thu 08:16:45 AM 53.1900 -14.3560 243° Southwest 461 531 35,000  Level FlightAware ADS-B
Thu 08:17:33 AM 53.1490 -14.4840 242° Southwest 461 531 35,000  Level FlightAware ADS-B
Thu 08:18:09 AM 53.1180 -14.5800 242° Southwest 461 531 35,000  Level FlightAware ADS-B
Thu 08:18:58 AM 53.0770 -14.7100 242° Southwest 461 531 35,000  Level FlightAware ADS-B
Thu 08:19:34 AM 53.0460 -14.8060 242° Southwest 461 531 35,000  Level FlightAware ADS-B
Thu 08:20:22 AM 53.0050 -14.9340 242° Southwest 461 531 35,000  Level FlightAware ADS-B
Thu 08:20:58 AM 52.9740 -15.0300 242° Southwest 461 531 35,000  Level FlightAware ADS-B
Thu 08:21:46 AM 52.9340 -15.1570 242° Southwest 461 531 35,000  Level FlightAware ADS-B
Thu 08:22:22 AM 52.9030 -15.2530 242° Southwest 461 531 35,000  Level FlightAware ADS-B
Thu 08:23:10 AM 52.8620 -15.3800 242° Southwest 461 531 35,000  Level FlightAware ADS-B
Thu 08:23:46 AM 52.8310 -15.4750 242° Southwest 461 531 35,000  Level FlightAware ADS-B
Thu 08:24:34 AM 52.7900 -15.6030 242° Southwest 461 531 35,000  Level FlightAware ADS-B
Thu 08:27:00 AM 52.8228 -16.0571 277° West  Level Estimated
Thu 08:28:00 AM 52.8358 -16.2439 277° West  Level Estimated
Thu 08:29:00 AM 52.8484 -16.4309 276° West  Level Estimated
Thu 08:30:00 AM 52.8608 -16.6179 276° West  Level Estimated
Thu 08:31:00 AM 52.8729 -16.8050 276° West  Level Estimated
Thu 08:32:00 AM 52.8847 -16.9923 276° West  Level Estimated
Thu 08:33:00 AM 52.8969 -17.1912 276° West  Level Estimated
Thu 08:34:00 AM 52.9088 -17.3901 276° West  Level Estimated
Thu 08:35:00 AM 52.9203 -17.5892 276° West  Level Estimated
Thu 08:36:00 AM 52.9315 -17.7885 275° West  Level Estimated
Thu 08:37:00 AM 52.9424 -17.9878 275° West  Level Estimated
Thu 08:38:00 AM 52.9530 -18.1872 275° West  Level Estimated
Thu 08:39:00 AM 52.9632 -18.3867 275° West  Level Estimated
Thu 08:40:00 AM 52.9730 -18.5863 275° West  Level Estimated
Thu 08:41:00 AM 52.9826 -18.7860 275° West  Level Estimated
Thu 08:42:00 AM 52.9918 -18.9857 274° West  Level Estimated
Thu 08:43:00 AM 53.0006 -19.1856 274° West  Level Estimated
Thu 08:44:00 AM 53.0000 -20.0000 274° West 441 507 35,000  Level ETMS Enhanced Traffic Management System
Thu 08:44:00 AM 53.0092 -19.3855 274° West  Level Estimated
Thu 08:45:00 AM 53.0174 -19.5855 274° West  Level Estimated
Thu 08:46:00 AM 53.0252 -19.7856 274° West  Level Estimated
Thu 08:47:00 AM 53.0327 -19.9858 274° West  Level Estimated
Thu 08:48:00 AM 53.0399 -20.1860 273° West  Level Estimated
Thu 08:49:00 AM 53.0468 -20.3863 273° West  Level Estimated
Thu 08:50:00 AM 53.0451 -21.2219 273° West 441 507 35,000  Level FlightAware Transoceanic
Thu 08:51:00 AM 53.0514 -21.4257 273° West 441 507 35,000  Level FlightAware Transoceanic
Thu 08:52:00 AM 53.0573 -21.6297 273° West 441 507 35,000  Level FlightAware Transoceanic
Thu 08:53:00 AM 53.0629 -21.8337 273° West 441 507 35,000  Level FlightAware Transoceanic
Thu 08:54:00 AM 53.0681 -22.0377 272° West 441 507 35,000  Level FlightAware Transoceanic
Thu 08:55:00 AM 53.0730 -22.2418 272° West 441 507 35,000  Level FlightAware Transoceanic
Thu 08:56:00 AM 53.0776 -22.4459 272° West 441 507 35,000  Level FlightAware Transoceanic
Thu 08:57:00 AM 53.0818 -22.6501 272° West 441 507 35,000  Level FlightAware Transoceanic
Thu 08:58:00 AM 53.0856 -22.8543 272° West 441 507 35,000  Level FlightAware Transoceanic
Thu 08:59:00 AM 53.0891 -23.0585 272° West 441 507 35,000  Level FlightAware Transoceanic
Thu 09:00:00 AM 53.0923 -23.2628 271° West 441 507 35,000  Level FlightAware Transoceanic
Thu 09:01:00 AM 53.0951 -23.4671 271° West 441 507 35,000  Level FlightAware Transoceanic
Thu 09:02:00 AM 53.0975 -23.6715 271° West 441 507 35,000  Level FlightAware Transoceanic
Thu 09:03:00 AM 53.0996 -23.8758 271° West 441 507 35,000  Level FlightAware Transoceanic
Thu 09:04:00 AM 53.1014 -24.0802 271° West 441 507 35,000  Level FlightAware Transoceanic
Thu 09:05:00 AM 53.1028 -24.2846 271° West 441 507 35,000  Level FlightAware Transoceanic
Thu 09:06:00 AM 53.1038 -24.4890 270° West 441 507 35,000  Level FlightAware Transoceanic
Thu 09:07:00 AM 53.1045 -24.6934 270° West 441 507 35,000  Level FlightAware Transoceanic
Thu 09:08:00 AM 53.1049 -24.8978 270° West 441 507 35,000  Level FlightAware Transoceanic
Thu 09:09:00 AM 53.1049 -25.1022 270° West 441 507 35,000  Level FlightAware Transoceanic
Thu 09:10:00 AM 53.1045 -25.3066 270° West 441 507 35,000  Level FlightAware Transoceanic
Thu 09:11:00 AM 53.1038 -25.5110 270° West 441 507 35,000  Level FlightAware Transoceanic
Thu 09:12:00 AM 53.1028 -25.7154 269° West 441 507 35,000  Level FlightAware Transoceanic
Thu 09:13:00 AM 53.1014 -25.9198 269° West 441 507 35,000  Level FlightAware Transoceanic
Thu 09:14:00 AM 53.0996 -26.1242 269° West 441 507 35,000  Level FlightAware Transoceanic
Thu 09:14:33 AM 53.1167 -25.9167 269° West 421 484 35,000  Level ETMS Enhanced Traffic Management System
Thu 09:15:00 AM 53.0975 -26.3285 269° West 441 507 35,000  Level FlightAware Transoceanic
Thu 09:15:45 AM 53.1000 -26.1333 269° West 418 481 35,000  Level ETMS Enhanced Traffic Management System
Thu 09:16:00 AM 53.0951 -26.5329 269° West 441 507 35,000  Level FlightAware Transoceanic
Thu 09:17:00 AM 53.0923 -26.7372 269° West 441 507 35,000  Level FlightAware Transoceanic
Thu 09:17:23 AM 53.1333 -26.4667 268° West 425 489 35,000  Level ETMS Enhanced Traffic Management System
Thu 09:18:00 AM 53.0891 -26.9415 268° West 441 507 35,000  Level FlightAware Transoceanic
Thu 09:19:00 AM 53.0856 -27.1457 268° West 441 507 35,000  Level FlightAware Transoceanic
Thu 09:20:00 AM 53.0976 -27.0854 268° West 421 484 35,000  Level FlightAware Transoceanic
Thu 09:21:00 AM 53.0832 -27.2951 268° West 418 481 35,000  Level FlightAware Transoceanic
Thu 09:22:00 AM 53.0793 -27.4886 268° West 418 481 35,000  Level FlightAware Transoceanic
Thu 09:23:00 AM 53.1005 -27.6468 267° West 425 489 35,000  Level FlightAware Transoceanic
Thu 09:24:00 AM 53.0939 -27.8433 267° West 425 489 35,000  Level FlightAware Transoceanic
Thu 09:25:00 AM 53.0870 -28.0397 267° West 425 489 35,000  Level FlightAware Transoceanic
Thu 09:26:00 AM 53.0798 -28.2361 266° West 425 489 35,000  Level FlightAware Transoceanic
Thu 09:27:00 AM 53.0722 -28.4324 266° West 425 489 35,000  Level FlightAware Transoceanic
Thu 09:28:00 AM 53.0643 -28.6286 266° West 425 489 35,000  Level FlightAware Transoceanic
Thu 09:29:00 AM 53.0561 -28.8248 266° West 425 489 35,000  Level FlightAware Transoceanic
Thu 09:30:00 AM 53.0475 -29.0208 266° West 425 489 35,000  Level FlightAware Transoceanic
Thu 09:31:00 AM 53.0387 -29.2168 266° West 425 489 35,000  Level FlightAware Transoceanic
Thu 09:32:00 AM 53.0295 -29.4128 265° West 425 489 35,000  Level FlightAware Transoceanic
Thu 09:33:00 AM 53.0200 -29.6086 265° West 425 489 35,000  Level FlightAware Transoceanic
Thu 09:34:00 AM 53.0102 -29.8043 265° West 425 489 35,000  Level FlightAware Transoceanic
Thu 09:35:00 AM 53.0008 -30.0042 266° West  Level Estimated
Thu 09:36:00 AM 52.9910 -30.2039 265° West  Level Estimated
Thu 09:37:00 AM 52.9810 -30.4036 265° West  Level Estimated
Thu 09:38:00 AM 52.9706 -30.6031 265° West  Level Estimated
Thu 09:39:00 AM 52.9598 -30.8026 265° West  Level Estimated
Thu 09:40:00 AM 52.9488 -31.0019 265° West  Level Estimated
Thu 09:41:00 AM 52.9374 -31.2012 265° West  Level Estimated
Thu 09:42:00 AM 52.9256 -31.4004 264° West  Level Estimated
Thu 09:43:00 AM 52.9136 -31.5994 264° West  Level Estimated
Thu 09:44:00 AM 52.9012 -31.7983 264° West  Level Estimated
Thu 09:45:00 AM 52.8885 -31.9971 264° West  Level Estimated
Thu 09:46:00 AM 52.8754 -32.1958 264° West  Level Estimated
Thu 09:47:00 AM 52.8620 -32.3944 264° West  Level Estimated
Thu 09:48:00 AM 52.8483 -32.5928 264° West  Level Estimated
Thu 09:49:00 AM 52.8342 -32.7912 263° West  Level Estimated
Thu 09:50:00 AM 52.8199 -32.9893 263° West  Level Estimated
Thu 09:51:00 AM 52.8051 -33.1874 263° West  Level Estimated
Thu 09:52:00 AM 52.7901 -33.3853 263° West  Level Estimated
Thu 09:53:00 AM 52.7747 -33.5831 263° West  Level Estimated
Thu 09:54:00 AM 52.7590 -33.7808 263° West  Level Estimated
Thu 09:55:00 AM 52.7430 -33.9783 262° West  Level Estimated
Thu 09:56:00 AM 52.7266 -34.1756 262° West  Level Estimated
Thu 09:57:00 AM 52.7100 -34.3728 262° West  Level Estimated
Thu 09:58:00 AM 52.6930 -34.5699 262° West  Level Estimated
Thu 09:59:00 AM 52.6756 -34.7668 262° West  Level Estimated
Thu 10:00:00 AM 52.6580 -34.9635 262° West  Level Estimated
Thu 10:01:00 AM 52.6400 -35.1601 262° West  Level Estimated
Thu 10:02:00 AM 52.6217 -35.3565 261° West  Level Estimated
Thu 10:03:00 AM 52.6030 -35.5527 261° West  Level Estimated
Thu 10:04:00 AM 52.5840 -35.7488 261° West  Level Estimated
Thu 10:05:00 AM 52.5648 -35.9447 261° West  Level Estimated
Thu 10:06:00 AM 52.5452 -36.1405 261° West  Level Estimated
Thu 10:07:00 AM 52.5252 -36.3360 261° West  Level Estimated
Thu 10:08:00 AM 52.5050 -36.5314 260° West  Level Estimated
Thu 10:09:00 AM 52.4844 -36.7266 260° West  Level Estimated
Thu 10:10:00 AM 52.4635 -36.9216 260° West  Level Estimated
Thu 10:11:00 AM 52.4423 -37.1165 260° West  Level Estimated
Thu 10:12:00 AM 52.4207 -37.3111 260° West  Level Estimated
Thu 10:13:00 AM 52.3989 -37.5056 260° West  Level Estimated
Thu 10:14:00 AM 52.3767 -37.6998 259° West  Level Estimated
Thu 10:15:00 AM 52.3542 -37.8939 259° West  Level Estimated
Thu 10:16:00 AM 52.3314 -38.0877 259° West  Level Estimated
Thu 10:17:00 AM 52.3083 -38.2814 259° West  Level Estimated
Thu 10:18:00 AM 52.2848 -38.4749 259° West  Level Estimated
Thu 10:19:00 AM 52.2611 -38.6681 259° West  Level Estimated
Thu 10:20:00 AM 52.2370 -38.8611 259° West  Level Estimated
Thu 10:21:00 AM 52.2126 -39.0540 258° West  Level Estimated
Thu 10:22:00 AM 52.1879 -39.2466 258° West  Level Estimated
Thu 10:23:00 AM 52.1629 -39.4390 258° West  Level Estimated
Thu 10:24:00 AM 52.1376 -39.6312 258° West  Level Estimated
Thu 10:25:00 AM 52.1119 -39.8232 258° West  Level Estimated
Thu 10:26:00 AM 52.0860 -40.0149 258° West  Level Estimated
Thu 10:27:00 AM 52.0597 -40.2064 257° West  Level Estimated
Thu 10:28:00 AM 52.0331 -40.3977 257° West  Level Estimated
Thu 10:29:00 AM 52.0063 -40.5888 257° West  Level Estimated
Thu 10:30:00 AM 51.9791 -40.7796 257° West  Level Estimated
Thu 10:31:00 AM 51.9516 -40.9702 257° West  Level Estimated
Thu 10:32:00 AM 51.9238 -41.1606 257° West  Level Estimated
Thu 10:33:00 AM 51.8956 -41.3507 257° West  Level Estimated
Thu 10:34:00 AM 51.8672 -41.5406 256° West  Level Estimated
Thu 10:35:00 AM 51.8385 -41.7302 256° West  Level Estimated
Thu 10:36:00 AM 51.8095 -41.9196 256° West  Level Estimated
Thu 10:37:00 AM 51.7802 -42.1088 256° West  Level Estimated
Thu 10:38:00 AM 51.7505 -42.2977 256° West  Level Estimated
Thu 10:39:00 AM 51.7206 -42.4864 256° West  Level Estimated
Thu 10:40:00 AM 51.6903 -42.6748 256° West  Level Estimated
Thu 10:41:00 AM 51.6598 -42.8629 255° West  Level Estimated
Thu 10:42:00 AM 51.6289 -43.0508 255° West  Level Estimated
Thu 10:43:00 AM 51.5978 -43.2385 255° West  Level Estimated
Thu 10:44:00 AM 51.5664 -43.4259 255° West  Level Estimated
Thu 10:45:00 AM 51.5346 -43.6130 255° West  Level Estimated
Thu 10:46:00 AM 51.5026 -43.7999 255° West  Level Estimated
Thu 10:47:00 AM 51.4703 -43.9865 255° West  Level Estimated
Thu 10:48:00 AM 51.4376 -44.1728 254° West  Level Estimated
Thu 10:49:00 AM 51.4047 -44.3589 254° West  Level Estimated
Thu 10:50:00 AM 51.3715 -44.5447 254° West  Level Estimated
Thu 10:51:00 AM 51.3380 -44.7302 254° West  Level Estimated
Thu 10:52:00 AM 51.3042 -44.9155 254° West  Level Estimated
Thu 10:53:00 AM 51.2701 -45.1005 254° West  Level Estimated
Thu 10:54:00 AM 51.2357 -45.2852 254° West  Level Estimated
Thu 10:55:00 AM 51.2010 -45.4696 253° West  Level Estimated
Thu 10:56:00 AM 51.1661 -45.6538 253° West  Level Estimated
Thu 10:57:00 AM 51.1308 -45.8377 253° West  Level Estimated
Thu 10:58:00 AM 51.0953 -46.0213 253° West  Level Estimated
Thu 10:59:00 AM 51.0594 -46.2046 253° West  Level Estimated
Thu 11:00:00 AM 51.0233 -46.3876 253° West  Level Estimated
Thu 11:01:00 AM 50.9873 -46.5683 253° West  Level Estimated
Thu 11:02:00 AM 50.9511 -46.7487 252° West  Level Estimated
Thu 11:03:00 AM 50.9145 -46.9289 252° West  Level Estimated
Thu 11:04:00 AM 50.8777 -47.1088 252° West  Level Estimated
Thu 11:05:00 AM 50.8406 -47.2883 252° West  Level Estimated
Thu 11:06:00 AM 50.8032 -47.4676 252° West  Level Estimated
Thu 11:07:00 AM 50.7655 -47.6466 252° West  Level Estimated
Thu 11:08:00 AM 50.7276 -47.8254 252° West  Level Estimated
Thu 11:09:00 AM 50.6894 -48.0038 251° West  Level Estimated
Thu 11:10:00 AM 50.6510 -48.1819 251° West  Level Estimated
Thu 11:11:00 AM 50.6122 -48.3598 251° West  Level Estimated
Thu 11:12:00 AM 50.5732 -48.5373 251° West  Level Estimated
Thu 11:13:00 AM 50.5339 -48.7146 251° West  Level Estimated
Thu 11:14:00 AM 50.4944 -48.8916 251° West  Level Estimated
Thu 11:15:00 AM 50.4546 -49.0682 251° West  Level Estimated
Thu 11:16:00 AM 50.4145 -49.2446 250° West  Level Estimated
Thu 11:17:00 AM 50.3741 -49.4207 250° West  Level Estimated
Thu 11:18:00 AM 50.3335 -49.5964 250° West  Level Estimated
Thu 11:19:00 AM 50.2926 -49.7719 250° West  Level Estimated
Thu 11:20:00 AM 50.2515 -49.9471 250° West  Level Estimated
Thu 11:21:00 AM 50.2100 -50.1219 250° West  Level Estimated
Thu 11:22:00 AM 50.1684 -50.2965 250° West  Level Estimated
Thu 11:23:00 AM 50.1264 -50.4707 249° West  Level Estimated
Thu 11:24:00 AM 50.0843 -50.6447 249° West  Level Estimated
Thu 11:25:00 AM 50.0418 -50.8183 249° West  Level Estimated
Thu 11:26:00 AM 49.9991 -50.9916 249° West  Level Estimated
Thu 11:27:00 AM 49.9561 -51.1647 249° West  Level Estimated
Thu 11:28:00 AM 49.9129 -51.3374 249° West  Level Estimated
Thu 11:29:00 AM 49.8694 -51.5098 249° West  Level Estimated
Thu 11:30:00 AM 49.8257 -51.6818 249° West  Level Estimated
Thu 11:30:09 AM 47.9000 -50.7010 248° West 35,000  Level FlightAware ADS-B
Thu 11:30:50 AM 47.8800 -50.8140 255° West 454 522 35,000  Level FlightAware ADS-B
Thu 11:31:00 AM 49.7817 -51.8535 248° West  Level Estimated
Thu 11:31:29 AM 47.8550 -50.9510 255° West 455 524 35,000  Level FlightAware ADS-B
Thu 11:32:16 AM 47.8280 -51.0780 252° West 454 522 35,000  Level FlightAware ADS-B
Thu 11:32:52 AM 47.8080 -51.1690 252° West 454 522 35,000  Level FlightAware ADS-B
Thu 11:33:39 AM 47.7760 -51.3370 254° West 456 525 35,000  Level FlightAware ADS-B
Thu 11:34:20 AM 47.7500 -51.4630 253° West 456 525 35,000  Level FlightAware ADS-B
Thu 11:35:02 AM 47.7240 -51.5890 253° West 457 526 35,000  Level FlightAware ADS-B
Thu 11:35:45 AM 47.6980 -51.7150 253° West 456 525 35,000  Level FlightAware ADS-B
Thu 11:36:20 AM 47.6750 -51.8230 252° West 456 525 35,000  Level FlightAware ADS-B
Thu 11:37:00 AM 47.6500 -51.9410 253° West 457 526 35,000  Level FlightAware ADS-B
Thu 11:37:32 AM 47.6300 -52.0370 253° West 459 528 35,000 265 Level FlightAware ADS-B
Thu 11:38:08 AM 47.6070 -52.1460 253° West 461 531 35,300 947 Climbing FlightAware ADS-B
Thu 11:38:48 AM 47.5810 -52.2640 252° West 458 527 36,200 1,390 Climbing FlightAware ADS-B
Thu 11:39:30 AM 47.5540 -52.3880 252° West 454 522 37,200 1,244 Climbing FlightAware ADS-B
Thu 11:40:10 AM 47.5280 -52.5060 252° West 452 520 37,900 571 Climbing FlightAware ADS-B
Thu 11:40:54 AM 47.5000 -52.6380 253° West 458 527 38,000 71 Climbing FlightAware ADS-B
Thu 11:41:34 AM 47.4730 -52.7550 251° West 454 522 38,000  Level FlightAware ADS-B
Thu 11:42:20 AM 47.4430 -52.8900 252° West 451 519 38,000  Level FlightAware ADS-B
Thu 11:43:02 AM 47.4160 -53.0130 252° West 449 517 38,000  Level FlightAware ADS-B
Thu 11:43:41 AM 47.3910 -53.1250 252° West 448 516 38,000  Level FlightAware ADS-B
Thu 11:44:26 AM 47.3620 -53.2530 252° West 448 516 38,000  Level FlightAware ADS-B
Thu 11:45:07 AM 47.3340 -53.3730 251° West 449 517 38,000  Level FlightAware ADS-B
Thu 11:45:48 AM 47.3070 -53.4920 252° West 450 518 38,000  Level FlightAware ADS-B
Thu 11:46:29 AM 47.2790 -53.6110 251° West 453 521 38,000  Level FlightAware ADS-B
Thu 11:47:11 AM 47.2500 -53.7360 251° West 453 521 38,000  Level FlightAware ADS-B
Thu 11:47:55 AM 47.2200 -53.8620 251° West 455 524 38,000  Level FlightAware ADS-B
Thu 11:48:34 AM 47.1940 -53.9740 251° West 454 522 38,000  Level FlightAware ADS-B
Thu 11:49:18 AM 47.1630 -54.1030 251° West 455 524 38,000  Level FlightAware ADS-B
Thu 11:50:02 AM 47.1320 -54.2310 250° West 455 524 38,000  Level FlightAware ADS-B
Thu 11:50:34 AM 47.1100 -54.3250 251° West 457 526 38,000  Level FlightAware ADS-B
Thu 11:51:18 AM 47.0790 -54.4530 250° West 457 526 38,000  Level FlightAware ADS-B
Thu 11:51:56 AM 47.0520 -54.5640 250° West 457 526 38,000  Level FlightAware ADS-B
Thu 11:52:33 AM 47.0260 -54.6690 250° West 458 527 38,000  Level FlightAware ADS-B
Thu 11:53:14 AM 46.9960 -54.7910 250° West 458 527 38,000  Level FlightAware ADS-B
Thu 11:53:58 AM 46.9640 -54.9180 250° West 459 528 38,000  Level FlightAware ADS-B
Thu 11:54:40 AM 46.9340 -55.0380 250° West 460 529 38,000  Level FlightAware ADS-B
Thu 11:55:24 AM 46.9020 -55.1690 250° West 461 531 38,000  Level FlightAware ADS-B
Thu 11:56:04 AM 46.8720 -55.2850 249° West 461 531 38,000  Level FlightAware ADS-B
Thu 11:56:44 AM 46.8430 -55.4020 250° West 461 531 38,000  Level FlightAware ADS-B
Thu 11:57:22 AM 46.8140 -55.5150 249° West 461 531 38,000  Level FlightAware ADS-B
Thu 11:58:02 AM 46.7850 -55.6280 249° West 460 529 38,000  Level FlightAware ADS-B
Thu 11:58:46 AM 46.7520 -55.7560 249° West 458 527 38,000  Level FlightAware ADS-B
Thu 11:59:24 AM 46.7250 -55.8610 249° West 457 526 38,000  Level FlightAware ADS-B
Thu 12:00:09 PM 46.6930 -55.9830 249° West 456 525 38,000  Level FlightAware ADS-B
Thu 12:00:49 PM 46.6620 -56.1000 249° West 456 525 38,000  Level FlightAware ADS-B
Thu 12:01:34 PM 46.6260 -56.2360 249° West 455 524 38,000  Level FlightAware ADS-B
Thu 12:02:12 PM 46.5970 -56.3450 249° West 455 524 38,000  Level FlightAware ADS-B
Thu 12:03:09 PM 46.5540 -56.5070 249° West 455 524 38,000  Level FlightAware ADS-B
Thu 12:04:04 PM 46.5120 -56.6620 249° West 456 525 38,000  Level FlightAware ADS-B
Thu 12:04:59 PM 46.4700 -56.8170 249° West 454 522 38,000  Level FlightAware ADS-B
Thu 12:05:37 PM 46.4450 -56.9090 249° West 454 522 38,000  Level FlightAware ADS-B
Thu 12:06:19 PM 46.4080 -57.0460 249° West 455 524 38,000  Level FlightAware ADS-B
Thu 12:07:14 PM 46.3680 -57.1900 248° West 455 524 38,000  Level FlightAware ADS-B
Thu 12:08:07 PM 46.3300 -57.3270 248° West 455 524 38,000  Level FlightAware ADS-B
Thu 12:08:55 PM 46.2980 -57.4420 248° West 455 524 38,000  Level FlightAware ADS-B
Thu 12:09:33 PM 46.2720 -57.5330 248° West 455 524 38,000  Level FlightAware ADS-B
Thu 12:10:33 PM 46.2320 -57.6770 248° West 455 524 38,000  Level FlightAware ADS-B
Thu 12:11:33 PM 46.1650 -57.9110 248° West 452 520 38,000  Level FlightAware ADS-B
Thu 12:12:16 PM 46.1270 -58.0480 248° West 452 520 38,000  Level FlightAware ADS-B
Thu 12:12:58 PM 46.0940 -58.1640 248° West 451 519 38,000  Level FlightAware ADS-B
Thu 12:13:40 PM 46.0610 -58.2800 248° West 451 519 38,000  Level FlightAware ADS-B
Thu 12:14:24 PM 46.0250 -58.4030 247° West 451 519 38,000  Level FlightAware ADS-B
Thu 12:15:04 PM 45.9930 -58.5140 247° West 450 518 38,000  Level FlightAware ADS-B
Thu 12:15:48 PM 45.9580 -58.6340 247° West 450 518 38,000  Level FlightAware ADS-B
Thu 12:16:30 PM 45.9250 -58.7490 248° West 450 518 38,000  Level FlightAware ADS-B
Thu 12:17:11 PM 45.8940 -58.8540 247° West 450 518 38,000  Level FlightAware ADS-B
Thu 12:17:52 PM 45.8580 -58.9750 247° West 450 518 38,000  Level FlightAware ADS-B
Thu 12:18:36 PM 45.8230 -59.0950 247° West 450 518 38,000  Level FlightAware ADS-B
Thu 12:19:18 PM 45.7880 -59.2120 247° West 451 519 38,000  Level FlightAware ADS-B
Thu 12:19:54 PM 45.7590 -59.3100 247° West 451 519 38,000  Level FlightAware ADS-B
Thu 12:20:34 PM 45.7260 -59.4200 247° West 451 519 38,000  Level FlightAware ADS-B
Thu 12:21:14 PM 45.6930 -59.5300 247° West 451 519 38,000  Level FlightAware ADS-B
Thu 12:21:58 PM 45.6570 -59.6490 247° West 452 520 38,000  Level FlightAware ADS-B
Thu 12:22:38 PM 45.6230 -59.7600 246° West 452 520 38,000  Level FlightAware ADS-B
Thu 12:23:24 PM 45.5850 -59.8860 247° West 453 521 38,000  Level FlightAware ADS-B
Thu 12:24:04 PM 45.5530 -59.9920 247° West 452 520 38,000  Level FlightAware ADS-B
Thu 12:24:44 PM 45.5190 -60.1020 246° West 452 520 38,000  Level FlightAware ADS-B
Thu 12:25:20 PM 45.4890 -60.1990 246° West 451 519 38,000  Level FlightAware ADS-B
Thu 12:26:00 PM 45.4550 -60.3090 246° West 452 520 38,000  Level FlightAware ADS-B
Thu 12:26:44 PM 45.4180 -60.4300 246° West 452 520 38,000  Level FlightAware ADS-B
Thu 12:27:28 PM 45.3810 -60.5480 246° West 451 519 38,000  Level FlightAware ADS-B
Thu 12:28:08 PM 45.3470 -60.6570 246° West 451 519 38,000  Level FlightAware ADS-B
Thu 12:28:44 PM 45.3170 -60.7560 247° West 451 519 38,000  Level FlightAware ADS-B
Thu 12:29:35 PM 45.2800 -60.8730 246° West 451 519 38,000  Level FlightAware ADS-B
Thu 12:30:12 PM 45.2530 -60.9590 246° West 451 519 38,000  Level FlightAware ADS-B
Thu 12:30:48 PM 45.2270 -61.0410 246° West 451 519 38,000  Level FlightAware ADS-B
Thu 12:31:25 PM 45.2000 -61.1270 246° West 451 519 38,000  Level FlightAware ADS-B
Thu 12:32:51 PM 45.1380 -61.3240 246° West 451 519 38,000  Level FlightAware ADS-B
Thu 12:33:27 PM 45.1120 -61.4070 246° West 451 519 38,000  Level FlightAware ADS-B
Thu 12:34:17 PM 45.0760 -61.5220 246° West 451 519 38,000  Level FlightAware ADS-B
Thu 12:35:05 PM 45.0420 -61.6320 246° West 451 519 38,000  Level FlightAware ADS-B
Thu 12:35:42 PM 45.0150 -61.7160 246° West 451 519 38,000  Level FlightAware ADS-B
Thu 12:36:19 PM 44.9880 -61.8010 246° West 451 519 38,000  Level FlightAware ADS-B
Thu 12:36:56 PM 44.9610 -61.8860 246° West 451 519 38,000  Level FlightAware ADS-B
Thu 12:37:44 PM 44.9270 -61.9960 246° West 451 519 38,000  Level FlightAware ADS-B
Thu 12:38:18 PM 44.9020 -62.0740 246° West 451 519 38,000  Level FlightAware ADS-B
Thu 12:39:57 PM 44.7450 -62.5300 244° Southwest 38,000  Level FlightAware ADS-B
Thu 12:41:26 PM 44.6710 -62.7540 245° Southwest 38,000  Level FlightAware ADS-B
Thu 12:42:10 PM 44.6320 -62.8690 245° Southwest 436 502 38,000  Level FlightAware ADS-B
Thu 12:42:56 PM 44.5920 -62.9880 245° Southwest 437 503 38,000  Level FlightAware ADS-B
Thu 12:43:37 PM 44.5580 -63.0870 244° Southwest 437 503 38,000  Level FlightAware ADS-B
Thu 12:44:19 PM 44.5210 -63.1990 245° Southwest 437 503 38,000  Level FlightAware ADS-B
Thu 12:45:01 PM 44.4850 -63.3020 244° Southwest 438 504 38,000  Level FlightAware ADS-B
Thu 12:45:47 PM 44.4440 -63.4230 245° Southwest 438 504 38,000  Level FlightAware ADS-B
Thu 12:46:29 PM 44.4070 -63.5310 244° Southwest 437 503 38,000  Level FlightAware ADS-B
Thu 12:47:04 PM 44.3780 -63.6170 245° Southwest 437 503 38,000  Level FlightAware ADS-B
Thu 12:47:52 PM 44.3350 -63.7390 244° Southwest 437 503 38,000  Level FlightAware ADS-B
Thu 12:48:34 PM 44.2980 -63.8480 245° Southwest 438 504 38,000  Level FlightAware ADS-B
Thu 12:49:11 PM 44.2660 -63.9380 244° Southwest 438 504 38,000  Level FlightAware ADS-B
Thu 12:49:57 PM 44.2240 -64.0570 244° Southwest 438 504 38,000  Level FlightAware ADS-B
Thu 12:50:33 PM 44.1930 -64.1480 245° Southwest 439 505 38,000  Level FlightAware ADS-B
Thu 12:51:09 PM 44.1600 -64.2390 243° Southwest 439 505 38,000  Level FlightAware ADS-B
Thu 12:51:55 PM 44.1190 -64.3580 244° Southwest 440 506 38,000  Level FlightAware ADS-B
Thu 12:52:26 PM 44.0930 -64.4300 243° Southwest 439 505 38,000  Level FlightAware ADS-B
Thu 12:53:10 PM 44.0510 -64.5460 243° Southwest 38,000  Level FlightAware ADS-B
Thu 12:54:12 PM 43.9970 -64.6990 244° Southwest 440 506 38,000  Level FlightAware ADS-B
Thu 12:54:49 PM 43.9670 -64.7820 243° Southwest 439 505 38,000  Level FlightAware ADS-B
Thu 12:55:30 PM 43.9230 -64.9030 243° Southwest 439 505 38,000  Level FlightAware ADS-B
Thu 12:56:15 PM 43.8820 -65.0150 243° Southwest 440 506 38,000  Level FlightAware ADS-B
Thu 12:56:55 PM 43.8460 -65.1140 243° Southwest 440 506 38,000  Level FlightAware ADS-B
Thu 12:57:30 PM 43.8140 -65.2020 243° Southwest 437 503 38,000  Level FlightAware ADS-B
Thu 12:58:00 PM 43.7860 -65.2800 244° Southwest 437 503 38,000  Level FlightAware ADS-B
Thu 12:58:40 PM 43.7490 -65.3790 243° Southwest 437 503 38,000  Level FlightAware ADS-B
Thu 12:59:25 PM 43.7080 -65.4910 243° Southwest 437 503 38,000  Level FlightAware ADS-B
Thu 01:00:06 PM 43.6690 -65.5950 243° Southwest 436 502 38,000  Level FlightAware ADS-B
Thu 01:00:45 PM 43.6330 -65.6940 243° Southwest 436 502 38,000  Level FlightAware ADS-B
Thu 01:01:31 PM 43.5900 -65.8060 242° Southwest 436 502 38,000  Level FlightAware ADS-B
Thu 01:02:10 PM 43.5530 -65.9050 243° Southwest 436 502 38,000  Level FlightAware ADS-B
Thu 01:02:46 PM 43.5210 -65.9910 243° Southwest 436 502 38,000  Level FlightAware ADS-B
Thu 01:03:31 PM 43.4780 -66.1040 242° Southwest 436 502 38,000  Level FlightAware ADS-B
Thu 01:04:06 PM 43.4450 -66.1910 242° Southwest 436 502 38,000  Level FlightAware ADS-B
Thu 01:04:58 PM 43.4000 -66.3100 243° Southwest 436 502 38,000  Level FlightAware ADS-B
Thu 01:05:40 PM 43.3560 -66.4250 242° Southwest 438 504 38,000  Level FlightAware ADS-B
Thu 01:06:29 PM 43.3170 -66.5280 243° Southwest 438 504 38,000  Level FlightAware ADS-B
Thu 01:07:05 PM 43.2890 -66.6040 243° Southwest 438 504 38,000  Level FlightAware ADS-B
Thu 01:08:17 PM 43.2090 -66.8040 241° Southwest 443 510 38,000  Level FlightAware ADS-B
Thu 01:09:01 PM 43.1760 -66.8860 241° Southwest 443 510 38,000  Level FlightAware ADS-B
Thu 01:09:37 PM 43.1450 -66.9620 241° Southwest 443 510 38,000  Level FlightAware ADS-B
Thu 01:10:30 PM 43.1060 -67.1370 253° West 445 512 38,000  Level FlightAware ADS-B
Thu 01:10:54 PM 43.0950 -67.1930 255° West 445 512 38,000  Level FlightAware ADS-B
Thu 01:11:36 PM 43.0760 -67.2900 255° West 445 512 38,000  Level FlightAware ADS-B
Thu 01:12:16 PM 43.0580 -67.3830 255° West 445 512 38,000  Level FlightAware ADS-B
Thu 01:13:17 PM 43.0210 -67.6070 257° West 38,000  Level FlightAware ADS-B
Thu 01:13:57 PM 43.0000 -67.7210 256° West 442 509 38,000  Level FlightAware ADS-B
Thu 01:14:43 PM 42.9780 -67.8390 256° West 441 507 38,000  Level FlightAware ADS-B
Thu 01:15:27 PM 42.9550 -67.9600 255° West 440 506 38,000  Level FlightAware ADS-B
Thu 01:16:07 PM 42.9340 -68.0710 256° West 438 504 38,000  Level FlightAware ADS-B
Thu 01:16:47 PM 42.9140 -68.1780 256° West 439 505 38,000  Level FlightAware ADS-B
Thu 01:17:27 PM 42.8930 -68.2840 255° West 438 504 38,000  Level FlightAware ADS-B
Thu 01:18:07 PM 42.8730 -68.3890 255° West 437 503 38,000  Level FlightAware ADS-B
Thu 01:18:48 PM 42.8520 -68.4980 255° West 435 501 38,000  Level FlightAware ADS-B
Thu 01:19:28 PM 42.8310 -68.6050 255° West 433 498 38,000  Level FlightAware ADS-B
Thu 01:20:08 PM 42.8100 -68.7110 255° West 431 496 38,000  Level FlightAware ADS-B
Thu 01:20:53 PM 42.7870 -68.8270 255° West 429 494 38,000  Level FlightAware ADS-B
Thu 01:21:48 PM 42.7590 -68.9700 255° West 429 494 38,000  Level FlightAware ADS-B
Thu 01:22:33 PM 42.7350 -69.0870 254° West 428 493 38,000  Level FlightAware ADS-B
Thu 01:23:08 PM 42.7170 -69.1780 255° West 429 494 38,000  Level FlightAware ADS-B
Thu 01:23:54 PM 42.6930 -69.2970 255° West 428 493 38,000  Level FlightAware ADS-B
Thu 01:24:33 PM 42.6720 -69.3990 254° West 428 493 38,000  Level FlightAware ADS-B
Thu 01:25:18 PM 42.6480 -69.5140 254° West 428 493 38,000  Level FlightAware ADS-B
Thu 01:26:03 PM 42.6240 -69.6310 254° West 427 491 38,000  Level FlightAware ADS-B
Thu 01:26:43 PM 42.6030 -69.7320 254° West 427 491 38,000 -75 Level FlightAware ADS-B
Thu 01:27:23 PM 42.5810 -69.8370 254° West 423 487 37,900 -847 Descending FlightAware ADS-B
Thu 01:28:08 PM 42.5580 -69.9480 254° West 425 489 36,800 -2,023 Descending FlightAware ADS-B
Thu 01:28:49 PM 42.5350 -70.0560 254° West 429 494 35,000 -2,741 Descending FlightAware ADS-B
Thu 01:29:29 PM 42.5140 -70.1570 254° West 431 496 33,100 -2,965 Descending FlightAware ADS-B
Thu 01:30:14 PM 42.4880 -70.2780 254° West 434 499 30,800 -2,753 Descending FlightAware ADS-B
Thu 01:30:54 PM 42.4650 -70.3830 253° West 426 490 29,200 -2,025 Descending FlightAware ADS-B
Thu 01:31:34 PM 42.4440 -70.4820 254° West 417 480 28,100 -1,326 Descending FlightAware ADS-B
Thu 01:32:20 PM 42.4190 -70.5960 253° West 407 468 27,300 -918 Descending FlightAware ADS-B
Thu 01:32:59 PM 42.3980 -70.6920 254° West 407 468 26,800 -759 Descending FlightAware ADS-B
Thu 01:33:39 PM 42.3770 -70.7890 254° West 409 471 26,300 -847 Descending FlightAware ADS-B
Thu 01:34:24 PM 42.3520 -70.9000 253° West 408 470 25,600 -1,271 Descending FlightAware ADS-B
Thu 01:35:04 PM 42.3310 -70.9940 253° West 399 459 24,500 -1,694 Descending FlightAware ADS-B
Thu 01:35:49 PM 42.3070 -71.0980 253° West 385 443 23,200 -1,650 Descending FlightAware ADS-B
Thu 01:36:24 PM 42.2870 -71.1810 252° West 383 441 22,300 -889 Descending FlightAware ADS-B
Thu 01:37:10 PM 42.2620 -71.2840 252° West 379 436 22,000 -360 Descending FlightAware ADS-B
Thu 01:38:04 PM 42.2320 -71.4060 252° West 377 434 21,700 -337 Descending FlightAware ADS-B
Thu 01:38:39 PM 42.2150 -71.4780 252° West 376 433 21,500 -404 Descending FlightAware ADS-B
Thu 01:39:33 PM 42.1830 -71.6060 251° West 373 429 21,100 -383 Descending FlightAware ADS-B
Thu 01:40:13 PM 42.1620 -71.6940 252° West 374 430 20,900 -375 Descending FlightAware ADS-B
Thu 01:40:53 PM 42.1400 -71.7820 251° West 372 428 20,600 -370 Descending FlightAware ADS-B
Thu 01:41:34 PM 42.1170 -71.8730 251° West 372 428 20,400 -253 Descending FlightAware ADS-B
Thu 01:42:28 PM 42.0890 -71.9830 251° West 372 428 20,200 -379 Descending FlightAware ADS-B
Thu 01:43:09 PM 42.1430 -71.7710 71° East 373 429 19,800 -659 Descending FlightAware ADS-B
Thu 01:43:59 PM 42.1420 -71.7730 236° Southwest 373 429 19,200 -375 Descending FlightAware ADS-B
Thu 01:44:45 PM 42.1220 -71.8600 253° West 373 429 19,200  Level FlightAware ADS-B
Thu 01:45:33 PM 42.1000 -71.9500 252° West 373 429 19,200  Level FlightAware ADS-B
Thu 01:46:09 PM 42.0830 -72.0180 251° West 373 429 19,200  Level FlightAware ADS-B
Thu 01:46:45 PM 42.0670 -72.0850 252° West 373 429 19,200 -1,829 Level FlightAware ADS-B
Thu 01:47:54 PM 41.9458 -72.6717 252° West 370 426 16,000 -1,488 Descending Boston Center
Thu 01:48:54 PM 41.9164 -72.7972 253° West 370 426 16,000 14 Level Boston Center
Thu 01:54:50 PM 41.6930 -73.5820 253° West 364 419 16,100  Climbing FlightAware ADS-B
Thu 01:55:32 PM 41.6710 -73.6730 252° West 363 418 16,000 -698 Descending FlightAware ADS-B
Thu 01:56:16 PM 41.6470 -73.7680 251° West 360 414 15,100 -1,154 Descending FlightAware ADS-B
Thu 01:56:24 PM 41.6432 -73.7851 253° West 359 413 15,000 -1,256 Descending FlightAware ADS-B
Thu 01:56:59 PM 41.6250 -73.8583 252° West 359 413 14,200 -1,254 Descending FlightAware ADS-B
Thu 01:57:31 PM 41.6082 -73.9239 251° West 353 406 13,600 -1,171 Descending FlightAware ADS-B
Thu 01:57:40 PM 41.6013 -73.9418 243° Southwest 354 407 13,400 -120 Descending FlightAware ADS-B
Thu 01:58:21 PM 41.5830 -74.0110 251° West 353 406 13,500 80 Climbing FlightAware ADS-B
Thu 01:58:55 PM 41.5660 -74.0700 249° West 353 406 13,500 -2,400 Level FlightAware ADS-B
Thu 02:00:01 PM 41.4570 -74.1580 211° Southwest 297 342 9,500 -3,325 Descending FlightAware ADS-B
Thu 02:00:18 PM 41.4420 -74.1830 231° Southwest 288 331 8,900 -800 Descending FlightAware ADS-B
Thu 02:00:46 PM 41.4210 -74.2150 229° Southwest 288 331 8,900 -333 Level FlightAware ADS-B
Thu 02:05:42 PM 41.1310 -74.5060 217° Southwest 273 314 7,100 -351 Descending FlightAware ADS-B
Thu 02:05:54 PM 41.1170 -74.5120 198° South 274 315 7,100  Level FlightAware ADS-B
Thu 02:06:19 PM 41.0885 -74.5237 197° South 270 311 7,100  Level FlightAware ADS-B
Thu 02:06:38 PM 41.0672 -74.5325 197° South 236 272 7,100  Level FlightAware ADS-B
Thu 02:06:51 PM 41.0545 -74.5378 197° South 232 267 7,100  Level FlightAware ADS-B
Thu 02:06:57 PM 41.0489 -74.5402 198° South 229 264 7,100  Level FlightAware ADS-B
Thu 02:07:17 PM 41.0276 -74.5460 192° South 230 265 7,100  Level FlightAware ADS-B
Thu 02:07:40 PM 41.0022 -74.5484 184° South 238 274 7,100  Level FlightAware ADS-B
Thu 02:07:59 PM 40.9816 -74.5502 184° South 233 268 7,100 -255 Level FlightAware ADS-B
Thu 02:08:27 PM 40.9524 -74.5545 186° South 230 265 6,900 -857 Descending FlightAware ADS-B
Thu 02:08:55 PM 40.9230 -74.5634 193° South 227 261 6,300 -1,116 Descending FlightAware ADS-B
Thu 02:09:10 PM 40.9079 -74.5683 194° South 224 258 6,100 -750 Descending FlightAware ADS-B
Thu 02:09:11 PM 40.9069 -74.5687 197° South 225 259 6,100  Level FlightAware ADS-B
Thu 02:09:26 PM 40.8913 -74.5740 194° South 233 268 6,100  Level FlightAware ADS-B
Thu 02:09:28 PM 40.8894 -74.5747 196° South 233 268 6,100  Level FlightAware ADS-B
Thu 02:09:46 PM 40.8708 -74.5809 194° South 232 267 6,100  Level FlightAware ADS-B
Thu 02:10:04 PM 40.8525 -74.5869 194° South 230 265 6,100  Level FlightAware ADS-B
Thu 02:10:25 PM 40.8302 -74.5939 193° South 230 265 6,100  Level FlightAware ADS-B
Thu 02:10:47 PM 40.8075 -74.6013 194° South 230 265 6,100  Level FlightAware ADS-B
Thu 02:11:10 PM 40.7843 -74.6088 194° South 230 265 6,100  Level FlightAware ADS-B
Thu 02:11:26 PM 40.7670 -74.6149 195° South 237 273 6,100  Level FlightAware ADS-B
Thu 02:11:43 PM 40.7493 -74.6210 195° South 233 268 6,100  Level FlightAware ADS-B
Thu 02:11:59 PM 40.7333 -74.6266 195° South 233 268 6,100  Level FlightAware ADS-B
Thu 02:12:17 PM 40.7136 -74.6334 195° South 233 268 6,100  Level FlightAware ADS-B
Thu 02:12:33 PM 40.6977 -74.6389 195° South 235 270 6,100  Level FlightAware ADS-B
Thu 02:12:52 PM 40.6774 -74.6456 194° South 233 268 6,100  Level FlightAware ADS-B
Thu 02:13:08 PM 40.6604 -74.6511 194° South 234 269 6,100  Level FlightAware ADS-B
Thu 02:13:53 PM 40.6152 -74.6695 197° South 230 265 6,100  Level FlightAware ADS-B
Thu 02:13:57 PM 40.6110 -74.6720 204° Southwest 229 264 6,100  Level FlightAware ADS-B
Thu 02:14:28 PM 40.5816 -74.6904 205° Southwest 228 262 6,100  Level FlightAware ADS-B
Thu 02:14:49 PM 40.5613 -74.7026 205° Southwest 228 262 6,100  Level FlightAware ADS-B
Thu 02:14:56 PM 40.5540 -74.7042 189° South 230 265 6,100  Level FlightAware ADS-B
Thu 02:15:01 PM 40.5491 -74.7043 181° South 231 266 6,100  Level FlightAware ADS-B
Thu 02:15:24 PM 40.5234 -74.7021 176° South 235 270 6,100  Level FlightAware ADS-B
Thu 02:15:40 PM 40.5068 -74.7002 175° South 234 269 6,100  Level FlightAware ADS-B
Thu 02:15:59 PM 40.4855 -74.6979 175° South 236 272 6,100  Level FlightAware ADS-B
Thu 02:16:15 PM 40.4681 -74.6959 175° South 239 275 6,100  Level FlightAware ADS-B
Thu 02:16:30 PM 40.4517 -74.6942 175° South 236 272 6,100  Level FlightAware ADS-B
Thu 02:16:46 PM 40.4347 -74.6925 176° South 237 273 6,100 -194 Level FlightAware ADS-B
Thu 02:17:01 PM 40.4183 -74.6907 175° South 235 270 6,000 -600 Descending FlightAware ADS-B
Thu 02:17:16 PM 40.4017 -74.6891 176° South 235 270 5,800 -1,000 Descending FlightAware ADS-B
Thu 02:17:31 PM 40.3852 -74.6873 175° South 235 270 5,500 -1,091 Descending FlightAware ADS-B
Thu 02:17:38 PM 40.3785 -74.6865 175° South 235 270 5,400 -600 Descending FlightAware ADS-B
Thu 02:17:41 PM 40.3748 -74.6856 170° South 235 270 5,400 -750 Level FlightAware ADS-B
Thu 02:17:46 PM 40.3701 -74.6839 165° South 235 270 5,300 -667 Descending FlightAware ADS-B
Thu 02:17:50 PM 40.3658 -74.6812 154° Southeast 235 270 5,300 -750 Level FlightAware ADS-B
Thu 02:17:54 PM 40.3622 -74.6780 146° Southeast 234 269 5,200 -1,333 Descending FlightAware ADS-B
Thu 02:17:59 PM 40.3581 -74.6729 137° Southeast 234 269 5,100 -600 Descending FlightAware ADS-B
Thu 02:18:04 PM 40.3552 -74.6672 124° Southeast 233 268 5,100  Level FlightAware ADS-B
Thu 02:18:09 PM 40.3528 -74.6610 117° Southeast 232 267 5,100  Level FlightAware ADS-B
Thu 02:18:18 PM 40.3493 -74.6482 110° East 235 270 5,100  Level FlightAware ADS-B
Thu 02:18:34 PM 40.3440 -74.6274 108° East 234 269 5,100  Level FlightAware ADS-B
Thu 02:18:49 PM 40.3391 -74.6075 108° East 214 246 5,100  Level FlightAware ADS-B
Thu 02:19:05 PM 40.3344 -74.5886 108° East 199 229 5,100  Level FlightAware ADS-B
Thu 02:19:21 PM 40.3299 -74.5711 109° East 196 226 5,100 -188 Level FlightAware ADS-B
Thu 02:19:37 PM 40.3253 -74.5527 108° East 191 220 5,000 -727 Descending FlightAware ADS-B
Thu 02:19:54 PM 40.3207 -74.5344 108° East 187 215 4,700 -1,091 Descending FlightAware ADS-B
Thu 02:20:10 PM 40.3166 -74.5179 108° East 186 214 4,400 -923 Descending FlightAware ADS-B
Thu 02:20:20 PM 40.3140 -74.5069 107° East 186 214 4,300 -923 Descending FlightAware ADS-B
Thu 02:20:36 PM 40.3098 -74.4902 108° East 186 214 4,000 -1,364 Descending FlightAware ADS-B
Thu 02:20:42 PM 40.3083 -74.4828 105° East 186 214 3,800 -1,385 Descending FlightAware ADS-B
Thu 02:20:49 PM 40.3082 -74.4756 91° East 183 211 3,700 -857 Descending FlightAware ADS-B
Thu 02:21:03 PM 40.3099 -74.4597 82° East 182 209 3,500 -1,000 Descending FlightAware ADS-B
Thu 02:21:19 PM 40.3123 -74.4427 80° East 182 209 3,200 -1,000 Descending FlightAware ADS-B
Thu 02:21:27 PM 40.3136 -74.4337 79° East 180 207 3,100 -429 Descending FlightAware ADS-B
Thu 02:21:33 PM 40.3148 -74.4278 75° East 180 207 3,100  Level FlightAware ADS-B
Thu 02:21:43 PM 40.3190 -74.4185 59° Northeast 183 211 3,100  Level FlightAware ADS-B
Thu 02:21:50 PM 40.3231 -74.4121 50° Northeast 183 211 3,100  Level FlightAware ADS-B
Thu 02:22:04 PM 40.3308 -74.4010 48° Northeast 186 214 3,100  Level FlightAware ADS-B
Thu 02:22:07 PM 40.3329 -74.3979 48° Northeast 186 214 3,100  Level FlightAware ADS-B
Thu 02:22:20 PM 40.3399 -74.3874 49° Northeast 181 208 3,100  Level FlightAware ADS-B
Thu 02:22:23 PM 40.3418 -74.3847 47° Northeast 180 207 3,100  Level FlightAware ADS-B
Thu 02:22:37 PM 40.3493 -74.3742 47° Northeast 178 205 3,100  Level FlightAware ADS-B
Thu 02:22:58 PM 40.3643 -74.3610 34° Northeast 179 206 3,100  Level FlightAware ADS-B
Thu 02:23:00 PM 40.3653 -74.3600 37° Northeast 179 206 3,100  Level FlightAware ADS-B
Thu 02:23:15 PM 40.3761 -74.3524 28° Northeast 179 206 3,100  Level FlightAware ADS-B
Thu 02:23:29 PM 40.3866 -74.3459 25° Northeast 178 205 3,100  Level FlightAware ADS-B
Thu 02:23:44 PM 40.3976 -74.3392 25° Northeast 178 205 3,100  Level FlightAware ADS-B
Thu 02:24:02 PM 40.4113 -74.3314 23° Northeast 180 207 3,100  Level FlightAware ADS-B
Thu 02:24:42 PM 40.4410 -74.3130 25° Northeast 178 205 3,100  Level FlightAware ADS-B
Thu 02:24:58 PM 40.4530 -74.3060 24° Northeast 177 204 3,100  Level FlightAware ADS-B
Thu 02:25:24 PM 40.4720 -74.2940 26° Northeast 178 205 3,100  Level FlightAware ADS-B
Thu 02:25:42 PM 40.4850 -74.2860 25° Northeast 179 206 3,100  Level FlightAware ADS-B
Thu 02:26:06 PM 40.5030 -74.2760 23° Northeast 176 203 3,100  Level FlightAware ADS-B
Thu 02:26:21 PM 40.5159 -74.2673 27° Northeast 183 211 3,100 -182 Level FlightAware ADS-B
Thu 02:26:39 PM 40.5296 -74.2589 25° Northeast 179 206 3,000 -529 Descending FlightAware ADS-B
Thu 02:26:55 PM 40.5416 -74.2515 25° Northeast 182 209 2,800 -774 Descending FlightAware ADS-B
Thu 02:27:10 PM 40.5531 -74.2444 25° Northeast 181 208 2,600 -1,000 Descending FlightAware ADS-B
Thu 02:27:31 PM 40.5689 -74.2348 25° Northeast 183 211 2,200 -1,000 Descending FlightAware ADS-B
Thu 02:27:46 PM 40.5807 -74.2274 25° Northeast 183 211 2,000 -833 Descending FlightAware ADS-B
Thu 02:28:07 PM 40.5963 -74.2180 25° Northeast 176 203 1,700 -973 Descending FlightAware ADS-B
Thu 02:28:23 PM 40.6075 -74.2111 25° Northeast 165 190 1,400 -968 Descending FlightAware ADS-B
Thu 02:28:38 PM 40.6178 -74.2050 24° Northeast 153 176 1,200 -667 Descending FlightAware ADS-B
Thu 02:28:50 PM 40.6250 -74.2005 25° Northeast 145 167 1,100 -667 Descending FlightAware ADS-B
Thu 02:29:05 PM 40.6343 -74.1950 24° Northeast 136 157 900 -774 Descending FlightAware ADS-B
Thu 02:29:21 PM 40.6434 -74.1895 25° Northeast 137 158 700 -800 Descending FlightAware ADS-B
Thu 02:29:35 PM 40.6517 -74.1845 25° Northeast 140 161 500 -800 Descending FlightAware ADS-B
Thu 02:29:51 PM 40.6606 -74.1792 24° Northeast 136 157 300 -563 Descending FlightAware ADS-B
Thu 02:30:07 PM 40.6698 -74.1737 24° Northeast 141 162 200 -375 Descending FlightAware ADS-B

Login

Don't have an account? Register now (free) for customized features, flight alerts, and more!